createdAt,value
2022-09-24T00:02:59.762Z,10.8
2022-09-24T00:17:24.755Z,10.7
2022-09-24T00:31:54.987Z,10.6
2022-09-24T00:46:24.674Z,10.5
2022-09-24T01:00:54.820Z,11
2022-09-24T01:15:23.320Z,11
2022-09-24T01:29:53.616Z,11.1
2022-09-24T01:44:24.598Z,11
2022-09-24T01:58:54.660Z,10.9
2022-09-24T02:13:24.733Z,10.8
2022-09-24T02:27:54.027Z,10.5
2022-09-24T02:42:27.312Z,10.6
2022-09-24T02:56:56.195Z,10.5
2022-09-24T03:11:27.034Z,10.5
2022-09-24T03:25:59.483Z,10.6
2022-09-24T03:40:27.729Z,10.8
2022-09-24T03:54:57.725Z,11
2022-09-24T04:09:34.689Z,10.8
2022-09-24T04:24:02.252Z,11
2022-09-24T04:38:34.701Z,10.9
2022-09-24T04:53:03.386Z,11.1
2022-09-24T05:07:34.373Z,11.3
2022-09-24T05:22:04.449Z,11.3
2022-09-24T05:36:35.156Z,11.5
2022-09-24T05:51:05.457Z,11.4
2022-09-24T06:05:37.008Z,11.1
2022-09-24T06:20:06.672Z,11.2
2022-09-24T06:34:38.243Z,11.6
2022-09-24T06:49:09.011Z,11.7
2022-09-24T07:03:40.456Z,11.8
2022-09-24T07:18:10.253Z,11.8
2022-09-24T07:32:41.049Z,11.9
2022-09-24T07:47:16.077Z,12.3
2022-09-24T08:01:45.891Z,12.6
2022-09-24T08:16:15.352Z,12.4
2022-09-24T08:30:47.439Z,12.1
2022-09-24T08:45:20.053Z,11.9
2022-09-24T08:59:52.098Z,11.7
2022-09-24T09:14:31.982Z,11.3
2022-09-24T09:28:59.973Z,11.7
2022-09-24T09:43:30.792Z,11.8
2022-09-24T09:58:01.803Z,12
2022-09-24T10:12:34.308Z,12.2
2022-09-24T10:27:11.687Z,12.2
2022-09-24T10:41:43.777Z,11.9
2022-09-24T10:56:11.986Z,12.7
2022-09-24T11:10:43.115Z,12.1
2022-09-24T11:25:11.012Z,12
2022-09-24T11:39:41.391Z,11.9
2022-09-24T11:54:16.564Z,11.8
2022-09-24T12:08:48.740Z,11.4
2022-09-24T12:23:15.215Z,11.7
2022-09-24T12:37:44.921Z,11.7
2022-09-24T12:52:15.736Z,11.7
2022-09-24T13:06:49.562Z,12.7
2022-09-24T13:21:15.629Z,13.7
2022-09-24T13:35:46.360Z,14.6
2022-09-24T13:50:03.269Z,14.8
2022-09-24T14:04:35.695Z,15.4
2022-09-24T14:19:03.485Z,15
2022-09-24T14:33:34.479Z,14.7
2022-09-24T14:48:09.103Z,14.8
2022-09-24T15:02:41.651Z,15.4
2022-09-24T15:17:07.280Z,15.6
2022-09-24T15:31:37.681Z,15.6
2022-09-24T15:46:08.531Z,15.1
2022-09-24T16:00:38.922Z,15.3
2022-09-24T16:15:08.173Z,15.1
2022-09-24T16:29:36.343Z,15.1
2022-09-24T16:44:06.223Z,14.9
2022-09-24T16:58:35.899Z,15.3
2022-09-24T17:13:06.486Z,14.9
2022-09-24T17:27:36.678Z,15
2022-09-24T17:42:07.825Z,15
2022-09-24T17:56:38.418Z,15.1
2022-09-24T18:11:07.141Z,15
2022-09-24T18:25:36.487Z,14.7
2022-09-24T18:40:00.770Z,15
2022-09-24T18:54:29.074Z,14.4
2022-09-24T19:09:00.097Z,14.7
2022-09-24T19:23:30.267Z,14.5
2022-09-24T19:38:01.078Z,14.4
2022-09-24T19:52:31.255Z,14.6
2022-09-24T20:07:06.696Z,14.4
2022-09-24T20:21:39.260Z,14.5
2022-09-24T20:36:25.364Z,14.6
2022-09-24T20:50:43.930Z,14.4
2022-09-24T21:05:13.735Z,14.3
2022-09-24T21:19:44.269Z,14.4
2022-09-24T21:34:15.066Z,14.2
2022-09-24T21:48:44.883Z,14.2
2022-09-24T22:03:14.572Z,14
2022-09-24T22:17:44.701Z,14.2
2022-09-24T22:32:14.778Z,14.2
2022-09-24T22:46:46.236Z,14.3
2022-09-24T23:01:15.993Z,14.3
2022-09-24T23:15:43.807Z,14.2
2022-09-24T23:30:15.410Z,14.1
2022-09-24T23:44:46.328Z,14.3
2022-09-24T23:59:15.872Z,14.1
